sensor_id;sensor_type;location;lat;lon;timestamp;P1;durP1;ratioP1;P2;durP2;ratioP2
5945;SDS011;2998;48.206;16.394;2022-08-18T00:02:27;7.60;;;5.93;;
5945;SDS011;2998;48.206;16.394;2022-08-18T00:04:58;6.60;;;6.00;;
5945;SDS011;2998;48.206;16.394;2022-08-18T00:07:28;6.50;;;6.00;;
5945;SDS011;2998;48.206;16.394;2022-08-18T00:09:59;6.07;;;5.60;;
5945;SDS011;2998;48.206;16.394;2022-08-18T00:12:29;6.30;;;5.77;;
5945;SDS011;2998;48.206;16.394;2022-08-18T00:14:59;6.20;;;5.80;;
5945;SDS011;2998;48.206;16.394;2022-08-18T00:17:30;6.53;;;6.03;;
5945;SDS011;2998;48.206;16.394;2022-08-18T00:19:59;6.37;;;5.97;;
5945;SDS011;2998;48.206;16.394;2022-08-18T00:22:27;7.10;;;6.20;;
5945;SDS011;2998;48.206;16.394;2022-08-18T00:24:56;5.80;;;5.33;;
5945;SDS011;2998;48.206;16.394;2022-08-18T00:27:25;6.07;;;5.47;;
5945;SDS011;2998;48.206;16.394;2022-08-18T00:29:55;7.53;;;6.27;;
5945;SDS011;2998;48.206;16.394;2022-08-18T00:32:25;6.40;;;5.90;;
5945;SDS011;2998;48.206;16.394;2022-08-18T00:34:55;6.33;;;5.83;;
5945;SDS011;2998;48.206;16.394;2022-08-18T00:37:23;7.03;;;6.33;;
5945;SDS011;2998;48.206;16.394;2022-08-18T00:39:52;5.33;;;4.93;;
5945;SDS011;2998;48.206;16.394;2022-08-18T00:42:21;7.83;;;5.70;;
5945;SDS011;2998;48.206;16.394;2022-08-18T00:44:59;6.37;;;5.87;;
5945;SDS011;2998;48.206;16.394;2022-08-18T00:47:28;6.30;;;5.90;;
5945;SDS011;2998;48.206;16.394;2022-08-18T00:50:09;6.30;;;5.90;;
5945;SDS011;2998;48.206;16.394;2022-08-18T00:52:41;7.13;;;6.67;;
5945;SDS011;2998;48.206;16.394;2022-08-18T00:55:13;6.50;;;6.00;;
5945;SDS011;2998;48.206;16.394;2022-08-18T00:57:43;7.17;;;6.67;;
5945;SDS011;2998;48.206;16.394;2022-08-18T01:00:14;7.17;;;6.57;;
5945;SDS011;2998;48.206;16.394;2022-08-18T01:02:43;7.43;;;6.80;;
5945;SDS011;2998;48.206;16.394;2022-08-18T01:05:21;8.40;;;7.70;;
5945;SDS011;2998;48.206;16.394;2022-08-18T01:07:55;6.37;;;5.87;;
5945;SDS011;2998;48.206;16.394;2022-08-18T01:10:24;6.60;;;5.90;;
5945;SDS011;2998;48.206;16.394;2022-08-18T01:12:53;8.03;;;7.33;;
5945;SDS011;2998;48.206;16.394;2022-08-18T01:15:24;9.23;;;7.83;;
5945;SDS011;2998;48.206;16.394;2022-08-18T01:17:55;8.50;;;7.70;;
5945;SDS011;2998;48.206;16.394;2022-08-18T01:20:43;9.90;;;6.93;;
5945;SDS011;2998;48.206;16.394;2022-08-18T01:23:32;7.00;;;6.50;;
5945;SDS011;2998;48.206;16.394;2022-08-18T01:26:02;9.70;;;7.17;;
5945;SDS011;2998;48.206;16.394;2022-08-18T01:28:31;8.03;;;7.23;;
5945;SDS011;2998;48.206;16.394;2022-08-18T01:31:00;8.60;;;7.70;;
5945;SDS011;2998;48.206;16.394;2022-08-18T01:33:30;7.33;;;6.70;;
5945;SDS011;2998;48.206;16.394;2022-08-18T01:36:05;8.33;;;7.53;;
5945;SDS011;2998;48.206;16.394;2022-08-18T01:38:39;8.40;;;7.73;;
5945;SDS011;2998;48.206;16.394;2022-08-18T01:41:07;7.10;;;6.60;;
5945;SDS011;2998;48.206;16.394;2022-08-18T01:43:55;7.27;;;6.63;;
5945;SDS011;2998;48.206;16.394;2022-08-18T01:46:24;7.60;;;7.00;;
5945;SDS011;2998;48.206;16.394;2022-08-18T01:48:53;8.70;;;6.77;;
5945;SDS011;2998;48.206;16.394;2022-08-18T01:51:21;7.03;;;6.53;;
5945;SDS011;2998;48.206;16.394;2022-08-18T01:54:07;7.27;;;6.67;;
5945;SDS011;2998;48.206;16.394;2022-08-18T01:56:38;8.10;;;7.40;;
5945;SDS011;2998;48.206;16.394;2022-08-18T01:59:07;8.10;;;7.30;;
5945;SDS011;2998;48.206;16.394;2022-08-18T02:01:41;8.50;;;7.70;;
5945;SDS011;2998;48.206;16.394;2022-08-18T02:04:19;8.00;;;7.30;;
5945;SDS011;2998;48.206;16.394;2022-08-18T02:07:03;8.53;;;6.70;;
5945;SDS011;2998;48.206;16.394;2022-08-18T02:09:35;7.33;;;6.63;;
5945;SDS011;2998;48.206;16.394;2022-08-18T02:12:04;7.20;;;6.60;;
5945;SDS011;2998;48.206;16.394;2022-08-18T02:14:33;7.20;;;6.50;;
5945;SDS011;2998;48.206;16.394;2022-08-18T02:17:02;9.23;;;7.13;;
5945;SDS011;2998;48.206;16.394;2022-08-18T02:19:33;7.63;;;7.03;;
5945;SDS011;2998;48.206;16.394;2022-08-18T02:22:02;7.23;;;6.60;;
5945;SDS011;2998;48.206;16.394;2022-08-18T02:24:30;7.10;;;6.60;;
5945;SDS011;2998;48.206;16.394;2022-08-18T02:27:00;7.57;;;6.97;;
5945;SDS011;2998;48.206;16.394;2022-08-18T02:29:28;7.33;;;6.73;;
5945;SDS011;2998;48.206;16.394;2022-08-18T02:31:56;7.07;;;6.50;;
5945;SDS011;2998;48.206;16.394;2022-08-18T02:34:25;7.73;;;7.03;;
5945;SDS011;2998;48.206;16.394;2022-08-18T02:36:53;8.10;;;7.50;;
5945;SDS011;2998;48.206;16.394;2022-08-18T02:39:21;7.47;;;6.70;;
5945;SDS011;2998;48.206;16.394;2022-08-18T02:41:49;7.80;;;7.20;;
5945;SDS011;2998;48.206;16.394;2022-08-18T02:44:20;7.17;;;6.20;;
5945;SDS011;2998;48.206;16.394;2022-08-18T02:46:50;15.57;;;6.43;;
5945;SDS011;2998;48.206;16.394;2022-08-18T02:49:19;7.77;;;7.07;;
5945;SDS011;2998;48.206;16.394;2022-08-18T02:51:48;6.53;;;6.10;;
5945;SDS011;2998;48.206;16.394;2022-08-18T02:54:16;7.97;;;7.23;;
5945;SDS011;2998;48.206;16.394;2022-08-18T02:56:45;8.07;;;7.33;;
5945;SDS011;2998;48.206;16.394;2022-08-18T02:59:15;7.33;;;6.93;;
5945;SDS011;2998;48.206;16.394;2022-08-18T03:01:46;8.27;;;7.47;;
5945;SDS011;2998;48.206;16.394;2022-08-18T03:04:17;7.33;;;6.80;;
5945;SDS011;2998;48.206;16.394;2022-08-18T03:06:54;10.30;;;6.40;;
5945;SDS011;2998;48.206;16.394;2022-08-18T03:09:22;7.10;;;6.60;;
5945;SDS011;2998;48.206;16.394;2022-08-18T03:11:50;10.60;;;6.70;;
5945;SDS011;2998;48.206;16.394;2022-08-18T03:14:20;11.00;;;6.77;;
5945;SDS011;2998;48.206;16.394;2022-08-18T03:16:49;12.33;;;7.53;;
5945;SDS011;2998;48.206;16.394;2022-08-18T03:19:20;8.00;;;7.40;;
5945;SDS011;2998;48.206;16.394;2022-08-18T03:21:49;8.33;;;7.00;;
5945;SDS011;2998;48.206;16.394;2022-08-18T03:24:18;9.90;;;8.90;;
5945;SDS011;2998;48.206;16.394;2022-08-18T03:26:49;8.77;;;7.70;;
5945;SDS011;2998;48.206;16.394;2022-08-18T03:29:18;8.60;;;7.90;;
5945;SDS011;2998;48.206;16.394;2022-08-18T03:31:48;7.90;;;7.10;;
5945;SDS011;2998;48.206;16.394;2022-08-18T03:34:17;7.67;;;7.03;;
5945;SDS011;2998;48.206;16.394;2022-08-18T03:36:46;9.80;;;8.80;;
5945;SDS011;2998;48.206;16.394;2022-08-18T03:39:15;9.73;;;8.77;;
5945;SDS011;2998;48.206;16.394;2022-08-18T03:41:44;10.67;;;8.57;;
5945;SDS011;2998;48.206;16.394;2022-08-18T03:44:26;10.90;;;9.60;;
5945;SDS011;2998;48.206;16.394;2022-08-18T03:46:57;14.30;;;9.60;;
5945;SDS011;2998;48.206;16.394;2022-08-18T03:49:25;10.83;;;8.90;;
5945;SDS011;2998;48.206;16.394;2022-08-18T03:51:53;9.70;;;8.70;;
5945;SDS011;2998;48.206;16.394;2022-08-18T03:54:22;8.47;;;7.60;;
5945;SDS011;2998;48.206;16.394;2022-08-18T03:56:51;9.47;;;8.57;;
5945;SDS011;2998;48.206;16.394;2022-08-18T03:59:20;10.47;;;8.77;;
5945;SDS011;2998;48.206;16.394;2022-08-18T04:01:50;9.67;;;8.90;;
5945;SDS011;2998;48.206;16.394;2022-08-18T04:04:23;10.13;;;8.90;;
5945;SDS011;2998;48.206;16.394;2022-08-18T04:06:53;9.63;;;8.73;;
5945;SDS011;2998;48.206;16.394;2022-08-18T04:09:24;9.13;;;8.33;;
5945;SDS011;2998;48.206;16.394;2022-08-18T04:11:55;14.33;;;9.10;;
5945;SDS011;2998;48.206;16.394;2022-08-18T04:14:25;10.80;;;8.60;;
5945;SDS011;2998;48.206;16.394;2022-08-18T04:16:55;10.30;;;7.93;;
5945;SDS011;2998;48.206;16.394;2022-08-18T04:19:25;8.20;;;7.70;;
5945;SDS011;2998;48.206;16.394;2022-08-18T04:21:54;9.10;;;8.20;;
5945;SDS011;2998;48.206;16.394;2022-08-18T04:24:24;13.00;;;8.20;;
5945;SDS011;2998;48.206;16.394;2022-08-18T04:26:54;8.60;;;7.87;;
5945;SDS011;2998;48.206;16.394;2022-08-18T04:29:23;9.07;;;8.27;;
5945;SDS011;2998;48.206;16.394;2022-08-18T04:31:51;10.63;;;9.63;;
5945;SDS011;2998;48.206;16.394;2022-08-18T04:34:20;11.07;;;10.00;;
5945;SDS011;2998;48.206;16.394;2022-08-18T04:36:51;12.60;;;8.43;;
5945;SDS011;2998;48.206;16.394;2022-08-18T04:39:20;10.47;;;8.03;;
5945;SDS011;2998;48.206;16.394;2022-08-18T04:41:48;8.80;;;7.83;;
5945;SDS011;2998;48.206;16.394;2022-08-18T04:44:16;9.53;;;8.30;;
5945;SDS011;2998;48.206;16.394;2022-08-18T04:46:46;9.87;;;8.63;;
5945;SDS011;2998;48.206;16.394;2022-08-18T04:49:15;9.13;;;7.40;;
5945;SDS011;2998;48.206;16.394;2022-08-18T04:51:49;10.10;;;8.27;;
5945;SDS011;2998;48.206;16.394;2022-08-18T04:54:52;8.90;;;7.03;;
5945;SDS011;2998;48.206;16.394;2022-08-18T04:57:20;7.53;;;7.00;;
5945;SDS011;2998;48.206;16.394;2022-08-18T04:59:49;8.17;;;7.10;;
5945;SDS011;2998;48.206;16.394;2022-08-18T05:02:19;10.00;;;8.63;;
5945;SDS011;2998;48.206;16.394;2022-08-18T05:04:49;18.23;;;7.73;;
5945;SDS011;2998;48.206;16.394;2022-08-18T05:07:20;8.47;;;7.60;;
5945;SDS011;2998;48.206;16.394;2022-08-18T05:09:49;7.30;;;6.70;;
5945;SDS011;2998;48.206;16.394;2022-08-18T05:12:17;7.83;;;6.80;;
5945;SDS011;2998;48.206;16.394;2022-08-18T05:14:51;9.90;;;7.30;;
5945;SDS011;2998;48.206;16.394;2022-08-18T05:17:19;7.10;;;6.50;;
5945;SDS011;2998;48.206;16.394;2022-08-18T05:19:49;7.93;;;7.23;;
5945;SDS011;2998;48.206;16.394;2022-08-18T05:22:18;6.70;;;6.20;;
5945;SDS011;2998;48.206;16.394;2022-08-18T05:24:56;11.17;;;5.97;;
5945;SDS011;2998;48.206;16.394;2022-08-18T05:27:29;6.40;;;6.00;;
5945;SDS011;2998;48.206;16.394;2022-08-18T05:29:58;7.80;;;7.10;;
5945;SDS011;2998;48.206;16.394;2022-08-18T05:32:26;8.77;;;6.80;;
5945;SDS011;2998;48.206;16.394;2022-08-18T05:35:15;6.90;;;6.40;;
5945;SDS011;2998;48.206;16.394;2022-08-18T05:37:52;6.77;;;6.10;;
5945;SDS011;2998;48.206;16.394;2022-08-18T05:40:29;7.10;;;6.53;;
5945;SDS011;2998;48.206;16.394;2022-08-18T05:42:57;7.37;;;6.60;;
5945;SDS011;2998;48.206;16.394;2022-08-18T05:45:25;6.93;;;6.37;;
5945;SDS011;2998;48.206;16.394;2022-08-18T05:47:56;6.90;;;5.90;;
5945;SDS011;2998;48.206;16.394;2022-08-18T05:50:25;6.10;;;5.70;;
5945;SDS011;2998;48.206;16.394;2022-08-18T05:52:56;6.43;;;5.73;;
5945;SDS011;2998;48.206;16.394;2022-08-18T05:55:26;6.43;;;5.93;;
5945;SDS011;2998;48.206;16.394;2022-08-18T05:58:15;5.43;;;5.13;;
5945;SDS011;2998;48.206;16.394;2022-08-18T06:00:47;7.07;;;5.73;;
5945;SDS011;2998;48.206;16.394;2022-08-18T06:03:25;6.40;;;5.90;;
5945;SDS011;2998;48.206;16.394;2022-08-18T06:06:13;6.70;;;6.10;;
5945;SDS011;2998;48.206;16.394;2022-08-18T06:08:46;8.83;;;6.40;;
5945;SDS011;2998;48.206;16.394;2022-08-18T06:11:17;6.60;;;5.30;;
5945;SDS011;2998;48.206;16.394;2022-08-18T06:13:48;6.33;;;5.67;;
5945;SDS011;2998;48.206;16.394;2022-08-18T06:16:28;6.13;;;5.63;;
5945;SDS011;2998;48.206;16.394;2022-08-18T06:22:06;6.37;;;5.80;;
5945;SDS011;2998;48.206;16.394;2022-08-18T06:24:48;8.03;;;6.10;;
5945;SDS011;2998;48.206;16.394;2022-08-18T06:27:21;5.40;;;4.80;;
5945;SDS011;2998;48.206;16.394;2022-08-18T06:30:00;6.40;;;5.00;;
5945;SDS011;2998;48.206;16.394;2022-08-18T06:32:41;5.83;;;4.57;;
5945;SDS011;2998;48.206;16.394;2022-08-18T06:35:21;4.60;;;4.30;;
5945;SDS011;2998;48.206;16.394;2022-08-18T06:37:55;5.70;;;5.30;;
5945;SDS011;2998;48.206;16.394;2022-08-18T06:40:47;5.50;;;5.17;;
5945;SDS011;2998;48.206;16.394;2022-08-18T06:43:15;5.97;;;5.57;;
5945;SDS011;2998;48.206;16.394;2022-08-18T06:45:45;5.93;;;5.33;;
5945;SDS011;2998;48.206;16.394;2022-08-18T06:48:20;7.70;;;5.27;;
5945;SDS011;2998;48.206;16.394;2022-08-18T06:50:55;5.37;;;5.00;;
5945;SDS011;2998;48.206;16.394;2022-08-18T06:56:21;6.80;;;5.83;;
5945;SDS011;2998;48.206;16.394;2022-08-18T06:58:52;4.80;;;4.50;;
5945;SDS011;2998;48.206;16.394;2022-08-18T07:01:21;5.90;;;5.20;;
5945;SDS011;2998;48.206;16.394;2022-08-18T07:03:51;9.27;;;5.53;;
5945;SDS011;2998;48.206;16.394;2022-08-18T07:06:27;6.20;;;5.30;;
5945;SDS011;2998;48.206;16.394;2022-08-18T07:12:00;5.50;;;5.20;;
5945;SDS011;2998;48.206;16.394;2022-08-18T07:14:33;6.30;;;5.70;;
5945;SDS011;2998;48.206;16.394;2022-08-18T07:17:10;7.20;;;5.53;;
5945;SDS011;2998;48.206;16.394;2022-08-18T07:19:40;5.93;;;5.33;;
5945;SDS011;2998;48.206;16.394;2022-08-18T07:22:09;6.20;;;5.60;;
5945;SDS011;2998;48.206;16.394;2022-08-18T07:24:40;6.77;;;6.07;;
5945;SDS011;2998;48.206;16.394;2022-08-18T07:27:11;9.43;;;6.10;;
5945;SDS011;2998;48.206;16.394;2022-08-18T07:29:57;6.20;;;5.70;;
5945;SDS011;2998;48.206;16.394;2022-08-18T07:32:27;8.27;;;6.33;;
5945;SDS011;2998;48.206;16.394;2022-08-18T07:34:57;7.57;;;5.97;;
5945;SDS011;2998;48.206;16.394;2022-08-18T07:37:28;7.40;;;6.57;;
5945;SDS011;2998;48.206;16.394;2022-08-18T07:39:58;6.40;;;5.90;;
5945;SDS011;2998;48.206;16.394;2022-08-18T07:42:34;8.27;;;6.20;;
5945;SDS011;2998;48.206;16.394;2022-08-18T07:45:26;7.07;;;6.30;;
5945;SDS011;2998;48.206;16.394;2022-08-18T07:47:59;8.20;;;5.80;;
5945;SDS011;2998;48.206;16.394;2022-08-18T07:50:53;6.67;;;6.00;;
5945;SDS011;2998;48.206;16.394;2022-08-18T07:53:35;6.17;;;5.57;;
5945;SDS011;2998;48.206;16.394;2022-08-18T07:56:21;6.33;;;5.57;;
5945;SDS011;2998;48.206;16.394;2022-08-18T07:58:57;6.10;;;5.70;;
5945;SDS011;2998;48.206;16.394;2022-08-18T08:01:31;6.47;;;6.03;;
5945;SDS011;2998;48.206;16.394;2022-08-18T08:04:08;6.10;;;5.60;;
5945;SDS011;2998;48.206;16.394;2022-08-18T08:06:53;10.43;;;5.67;;
5945;SDS011;2998;48.206;16.394;2022-08-18T08:09:50;5.40;;;5.10;;
5945;SDS011;2998;48.206;16.394;2022-08-18T08:12:24;6.77;;;6.07;;
5945;SDS011;2998;48.206;16.394;2022-08-18T08:15:03;5.63;;;4.90;;
5945;SDS011;2998;48.206;16.394;2022-08-18T08:17:36;6.17;;;5.67;;
5945;SDS011;2998;48.206;16.394;2022-08-18T08:20:14;5.43;;;5.13;;
5945;SDS011;2998;48.206;16.394;2022-08-18T08:22:50;5.60;;;5.20;;
5945;SDS011;2998;48.206;16.394;2022-08-18T08:25:25;7.70;;;6.00;;
5945;SDS011;2998;48.206;16.394;2022-08-18T08:28:15;6.13;;;5.63;;
5945;SDS011;2998;48.206;16.394;2022-08-18T08:30:51;5.97;;;5.43;;
5945;SDS011;2998;48.206;16.394;2022-08-18T08:33:55;5.90;;;5.30;;
5945;SDS011;2998;48.206;16.394;2022-08-18T08:36:32;6.00;;;5.10;;
5945;SDS011;2998;48.206;16.394;2022-08-18T08:39:04;5.50;;;4.90;;
5945;SDS011;2998;48.206;16.394;2022-08-18T08:41:34;6.03;;;5.63;;
5945;SDS011;2998;48.206;16.394;2022-08-18T08:44:06;6.20;;;5.80;;
5945;SDS011;2998;48.206;16.394;2022-08-18T08:46:40;10.10;;;5.83;;
5945;SDS011;2998;48.206;16.394;2022-08-18T08:49:16;9.90;;;6.30;;
5945;SDS011;2998;48.206;16.394;2022-08-18T08:51:54;7.10;;;6.37;;
5945;SDS011;2998;48.206;16.394;2022-08-18T08:54:28;6.10;;;5.60;;
5945;SDS011;2998;48.206;16.394;2022-08-18T08:57:06;11.97;;;5.53;;
5945;SDS011;2998;48.206;16.394;2022-08-18T08:59:36;7.03;;;6.03;;
5945;SDS011;2998;48.206;16.394;2022-08-18T09:02:18;6.17;;;5.67;;
5945;SDS011;2998;48.206;16.394;2022-08-18T09:05:14;6.47;;;5.70;;
5945;SDS011;2998;48.206;16.394;2022-08-18T09:07:58;6.20;;;5.60;;
5945;SDS011;2998;48.206;16.394;2022-08-18T09:10:38;7.33;;;6.67;;
5945;SDS011;2998;48.206;16.394;2022-08-18T09:13:24;8.80;;;5.37;;
5945;SDS011;2998;48.206;16.394;2022-08-18T09:16:18;5.37;;;4.87;;
5945;SDS011;2998;48.206;16.394;2022-08-18T09:19:03;5.73;;;5.40;;
5945;SDS011;2998;48.206;16.394;2022-08-18T09:21:40;6.27;;;5.87;;
5945;SDS011;2998;48.206;16.394;2022-08-18T09:24:19;5.87;;;5.47;;
5945;SDS011;2998;48.206;16.394;2022-08-18T09:26:50;6.00;;;5.60;;
5945;SDS011;2998;48.206;16.394;2022-08-18T09:29:20;5.30;;;4.80;;
5945;SDS011;2998;48.206;16.394;2022-08-18T09:35:02;9.20;;;5.97;;
5945;SDS011;2998;48.206;16.394;2022-08-18T09:37:40;5.70;;;5.30;;
5945;SDS011;2998;48.206;16.394;2022-08-18T09:40:16;5.83;;;5.43;;
5945;SDS011;2998;48.206;16.394;2022-08-18T09:43:30;6.37;;;5.87;;
5945;SDS011;2998;48.206;16.394;2022-08-18T09:46:02;6.40;;;5.80;;
5945;SDS011;2998;48.206;16.394;2022-08-18T09:48:32;6.10;;;5.70;;
5945;SDS011;2998;48.206;16.394;2022-08-18T09:54:23;8.33;;;5.30;;
5945;SDS011;2998;48.206;16.394;2022-08-18T10:05:40;11.63;;;5.53;;
5945;SDS011;2998;48.206;16.394;2022-08-18T10:08:47;7.03;;;5.60;;
5945;SDS011;2998;48.206;16.394;2022-08-18T10:11:32;5.53;;;5.13;;
5945;SDS011;2998;48.206;16.394;2022-08-18T10:14:24;5.53;;;5.20;;
5945;SDS011;2998;48.206;16.394;2022-08-18T10:17:02;6.00;;;5.47;;
5945;SDS011;2998;48.206;16.394;2022-08-18T10:19:51;10.53;;;5.10;;
5945;SDS011;2998;48.206;16.394;2022-08-18T10:22:34;10.27;;;5.50;;
5945;SDS011;2998;48.206;16.394;2022-08-18T10:25:05;7.00;;;6.40;;
5945;SDS011;2998;48.206;16.394;2022-08-18T10:27:50;7.03;;;6.20;;
5945;SDS011;2998;48.206;16.394;2022-08-18T10:36:32;7.07;;;5.00;;
5945;SDS011;2998;48.206;16.394;2022-08-18T10:39:05;5.50;;;5.03;;
5945;SDS011;2998;48.206;16.394;2022-08-18T10:41:35;4.90;;;4.60;;
5945;SDS011;2998;48.206;16.394;2022-08-18T10:44:06;4.20;;;4.10;;
5945;SDS011;2998;48.206;16.394;2022-08-18T10:46:54;6.20;;;4.13;;
5945;SDS011;2998;48.206;16.394;2022-08-18T10:49:24;5.67;;;4.17;;
5945;SDS011;2998;48.206;16.394;2022-08-18T10:55:31;5.07;;;4.80;;
5945;SDS011;2998;48.206;16.394;2022-08-18T10:58:36;5.40;;;5.10;;
5945;SDS011;2998;48.206;16.394;2022-08-18T11:01:11;5.13;;;4.77;;
5945;SDS011;2998;48.206;16.394;2022-08-18T11:06:56;4.47;;;4.13;;
5945;SDS011;2998;48.206;16.394;2022-08-18T11:09:33;5.13;;;4.30;;
5945;SDS011;2998;48.206;16.394;2022-08-18T11:12:07;4.20;;;3.80;;
5945;SDS011;2998;48.206;16.394;2022-08-18T11:17:53;8.40;;;4.03;;
5945;SDS011;2998;48.206;16.394;2022-08-18T11:20:28;4.37;;;4.07;;
5945;SDS011;2998;48.206;16.394;2022-08-18T11:22:59;4.97;;;4.47;;
5945;SDS011;2998;48.206;16.394;2022-08-18T11:25:29;4.80;;;4.30;;
5945;SDS011;2998;48.206;16.394;2022-08-18T11:27:58;4.90;;;3.60;;
5945;SDS011;2998;48.206;16.394;2022-08-18T11:30:27;3.50;;;3.30;;
5945;SDS011;2998;48.206;16.394;2022-08-18T11:33:02;4.93;;;4.23;;
5945;SDS011;2998;48.206;16.394;2022-08-18T11:35:33;5.33;;;4.20;;
5945;SDS011;2998;48.206;16.394;2022-08-18T11:38:12;8.43;;;4.07;;
5945;SDS011;2998;48.206;16.394;2022-08-18T11:40:50;4.60;;;4.13;;
5945;SDS011;2998;48.206;16.394;2022-08-18T11:43:38;3.60;;;3.17;;
5945;SDS011;2998;48.206;16.394;2022-08-18T11:46:20;3.80;;;3.23;;
5945;SDS011;2998;48.206;16.394;2022-08-18T11:48:58;3.67;;;2.97;;
5945;SDS011;2998;48.206;16.394;2022-08-18T11:51:33;4.10;;;2.90;;
5945;SDS011;2998;48.206;16.394;2022-08-18T11:54:02;3.83;;;3.53;;
5945;SDS011;2998;48.206;16.394;2022-08-18T11:56:48;9.63;;;4.17;;
5945;SDS011;2998;48.206;16.394;2022-08-18T11:59:29;4.47;;;3.53;;
5945;SDS011;2998;48.206;16.394;2022-08-18T12:02:18;3.80;;;3.60;;
5945;SDS011;2998;48.206;16.394;2022-08-18T12:04:51;4.20;;;3.80;;
5945;SDS011;2998;48.206;16.394;2022-08-18T12:07:25;4.60;;;4.10;;
5945;SDS011;2998;48.206;16.394;2022-08-18T12:10:08;4.10;;;3.70;;
5945;SDS011;2998;48.206;16.394;2022-08-18T12:13:01;4.47;;;3.60;;
5945;SDS011;2998;48.206;16.394;2022-08-18T12:15:32;3.50;;;3.30;;
5945;SDS011;2998;48.206;16.394;2022-08-18T12:18:12;3.53;;;3.23;;
5945;SDS011;2998;48.206;16.394;2022-08-18T12:20:56;4.30;;;3.90;;
5945;SDS011;2998;48.206;16.394;2022-08-18T12:23:24;11.83;;;3.70;;
5945;SDS011;2998;48.206;16.394;2022-08-18T12:26:04;4.37;;;3.80;;
5945;SDS011;2998;48.206;16.394;2022-08-18T12:29:13;4.00;;;3.70;;
5945;SDS011;2998;48.206;16.394;2022-08-18T12:31:42;3.70;;;3.50;;
5945;SDS011;2998;48.206;16.394;2022-08-18T12:34:30;4.07;;;3.73;;
5945;SDS011;2998;48.206;16.394;2022-08-18T12:37:00;5.13;;;3.80;;
5945;SDS011;2998;48.206;16.394;2022-08-18T12:39:39;5.53;;;3.43;;
5945;SDS011;2998;48.206;16.394;2022-08-18T12:42:10;16.30;;;5.60;;
5945;SDS011;2998;48.206;16.394;2022-08-18T12:44:38;4.37;;;4.10;;
5945;SDS011;2998;48.206;16.394;2022-08-18T12:47:10;4.80;;;4.40;;
5945;SDS011;2998;48.206;16.394;2022-08-18T12:49:39;3.53;;;3.23;;
5945;SDS011;2998;48.206;16.394;2022-08-18T12:52:10;4.37;;;3.50;;
5945;SDS011;2998;48.206;16.394;2022-08-18T12:54:39;5.20;;;4.10;;
5945;SDS011;2998;48.206;16.394;2022-08-18T12:57:22;4.67;;;3.63;;
5945;SDS011;2998;48.206;16.394;2022-08-18T13:00:12;4.53;;;3.10;;
5945;SDS011;2998;48.206;16.394;2022-08-18T13:02:44;2.97;;;2.73;;
5945;SDS011;2998;48.206;16.394;2022-08-18T13:05:12;3.43;;;3.10;;
5945;SDS011;2998;48.206;16.394;2022-08-18T13:07:41;9.37;;;3.40;;
5945;SDS011;2998;48.206;16.394;2022-08-18T13:10:09;3.57;;;3.33;;
5945;SDS011;2998;48.206;16.394;2022-08-18T13:12:57;4.50;;;3.43;;
5945;SDS011;2998;48.206;16.394;2022-08-18T13:15:26;3.67;;;3.23;;
5945;SDS011;2998;48.206;16.394;2022-08-18T13:17:55;3.77;;;3.47;;
5945;SDS011;2998;48.206;16.394;2022-08-18T13:20:22;3.47;;;3.27;;
5945;SDS011;2998;48.206;16.394;2022-08-18T13:22:52;3.90;;;3.60;;
5945;SDS011;2998;48.206;16.394;2022-08-18T13:25:22;5.00;;;3.60;;
5945;SDS011;2998;48.206;16.394;2022-08-18T13:27:58;4.33;;;3.43;;
5945;SDS011;2998;48.206;16.394;2022-08-18T13:30:27;3.30;;;3.10;;
5945;SDS011;2998;48.206;16.394;2022-08-18T13:32:58;4.23;;;3.87;;
5945;SDS011;2998;48.206;16.394;2022-08-18T13:35:46;4.03;;;3.60;;
5945;SDS011;2998;48.206;16.394;2022-08-18T13:38:21;4.30;;;4.00;;
5945;SDS011;2998;48.206;16.394;2022-08-18T13:40:53;4.90;;;4.50;;
5945;SDS011;2998;48.206;16.394;2022-08-18T13:43:26;4.87;;;4.50;;
5945;SDS011;2998;48.206;16.394;2022-08-18T13:45:56;5.00;;;4.67;;
5945;SDS011;2998;48.206;16.394;2022-08-18T13:48:26;5.10;;;4.80;;
5945;SDS011;2998;48.206;16.394;2022-08-18T13:50:55;5.20;;;4.80;;
5945;SDS011;2998;48.206;16.394;2022-08-18T13:53:28;5.23;;;4.70;;
5945;SDS011;2998;48.206;16.394;2022-08-18T13:55:57;5.60;;;5.07;;
5945;SDS011;2998;48.206;16.394;2022-08-18T13:58:26;4.93;;;4.37;;
5945;SDS011;2998;48.206;16.394;2022-08-18T14:00:56;4.40;;;4.00;;
5945;SDS011;2998;48.206;16.394;2022-08-18T14:03:44;4.90;;;4.53;;
5945;SDS011;2998;48.206;16.394;2022-08-18T14:06:15;4.40;;;4.10;;
5945;SDS011;2998;48.206;16.394;2022-08-18T14:08:51;5.50;;;5.10;;
5945;SDS011;2998;48.206;16.394;2022-08-18T14:11:20;4.57;;;4.37;;
5945;SDS011;2998;48.206;16.394;2022-08-18T14:13:53;4.40;;;4.07;;
5945;SDS011;2998;48.206;16.394;2022-08-18T14:16:22;4.83;;;4.53;;
5945;SDS011;2998;48.206;16.394;2022-08-18T14:18:52;7.70;;;4.67;;
5945;SDS011;2998;48.206;16.394;2022-08-18T14:21:40;5.80;;;5.40;;
5945;SDS011;2998;48.206;16.394;2022-08-18T14:24:27;4.73;;;4.53;;
5945;SDS011;2998;48.206;16.394;2022-08-18T14:27:14;6.03;;;5.20;;
5945;SDS011;2998;48.206;16.394;2022-08-18T14:29:43;13.00;;;5.00;;
5945;SDS011;2998;48.206;16.394;2022-08-18T14:32:14;4.53;;;4.13;;
5945;SDS011;2998;48.206;16.394;2022-08-18T14:34:54;5.50;;;5.00;;
5945;SDS011;2998;48.206;16.394;2022-08-18T14:37:26;5.43;;;4.53;;
5945;SDS011;2998;48.206;16.394;2022-08-18T14:39:56;5.07;;;4.63;;
5945;SDS011;2998;48.206;16.394;2022-08-18T14:42:25;7.63;;;5.40;;
5945;SDS011;2998;48.206;16.394;2022-08-18T14:45:07;5.50;;;5.20;;
5945;SDS011;2998;48.206;16.394;2022-08-18T14:47:53;6.10;;;5.47;;
5945;SDS011;2998;48.206;16.394;2022-08-18T14:50:23;5.03;;;4.53;;
5945;SDS011;2998;48.206;16.394;2022-08-18T14:52:51;4.90;;;4.70;;
5945;SDS011;2998;48.206;16.394;2022-08-18T14:55:20;8.60;;;5.40;;
5945;SDS011;2998;48.206;16.394;2022-08-18T14:57:49;5.17;;;4.90;;
5945;SDS011;2998;48.206;16.394;2022-08-18T15:00:18;5.60;;;5.10;;
5945;SDS011;2998;48.206;16.394;2022-08-18T15:02:48;5.30;;;4.90;;
5945;SDS011;2998;48.206;16.394;2022-08-18T15:05:16;5.40;;;5.10;;
5945;SDS011;2998;48.206;16.394;2022-08-18T15:07:50;5.90;;;5.40;;
5945;SDS011;2998;48.206;16.394;2022-08-18T15:10:18;5.27;;;4.93;;
5945;SDS011;2998;48.206;16.394;2022-08-18T15:12:53;5.70;;;5.20;;
5945;SDS011;2998;48.206;16.394;2022-08-18T15:15:23;5.97;;;5.33;;
5945;SDS011;2998;48.206;16.394;2022-08-18T15:17:51;48.33;;;5.03;;
5945;SDS011;2998;48.206;16.394;2022-08-18T15:20:19;17.43;;;3.27;;
5945;SDS011;2998;48.206;16.394;2022-08-18T15:22:57;12.43;;;3.00;;
5945;SDS011;2998;48.206;16.394;2022-08-18T15:25:55;20.50;;;5.70;;
5945;SDS011;2998;48.206;16.394;2022-08-18T15:28:24;11.17;;;2.00;;
5945;SDS011;2998;48.206;16.394;2022-08-18T15:30:53;16.07;;;4.07;;
5945;SDS011;2998;48.206;16.394;2022-08-18T15:33:41;10.60;;;3.00;;
5945;SDS011;2998;48.206;16.394;2022-08-18T15:36:16;5.40;;;1.60;;
5945;SDS011;2998;48.206;16.394;2022-08-18T15:38:54;10.10;;;2.23;;
5945;SDS011;2998;48.206;16.394;2022-08-18T15:41:27;5.17;;;1.80;;
5945;SDS011;2998;48.206;16.394;2022-08-18T15:44:00;6.60;;;1.60;;
5945;SDS011;2998;48.206;16.394;2022-08-18T15:46:30;3.73;;;1.80;;
5945;SDS011;2998;48.206;16.394;2022-08-18T15:48:59;5.40;;;1.83;;
5945;SDS011;2998;48.206;16.394;2022-08-18T15:51:31;3.10;;;2.20;;
5945;SDS011;2998;48.206;16.394;2022-08-18T15:54:06;8.43;;;3.73;;
5945;SDS011;2998;48.206;16.394;2022-08-18T15:56:38;6.00;;;2.30;;
5945;SDS011;2998;48.206;16.394;2022-08-18T15:59:08;4.87;;;2.50;;
5945;SDS011;2998;48.206;16.394;2022-08-18T16:01:38;17.90;;;3.17;;
5945;SDS011;2998;48.206;16.394;2022-08-18T16:04:12;7.90;;;2.80;;
5945;SDS011;2998;48.206;16.394;2022-08-18T16:06:41;5.93;;;2.90;;
5945;SDS011;2998;48.206;16.394;2022-08-18T16:09:14;7.70;;;3.37;;
5945;SDS011;2998;48.206;16.394;2022-08-18T16:11:43;13.37;;;4.70;;
5945;SDS011;2998;48.206;16.394;2022-08-18T16:14:11;4.30;;;2.03;;
5945;SDS011;2998;48.206;16.394;2022-08-18T16:16:40;4.70;;;1.80;;
5945;SDS011;2998;48.206;16.394;2022-08-18T16:19:11;9.97;;;5.07;;
5945;SDS011;2998;48.206;16.394;2022-08-18T16:21:39;13.47;;;3.60;;
5945;SDS011;2998;48.206;16.394;2022-08-18T16:24:07;8.90;;;3.17;;